createdAt,value
2022-09-20T00:01:21.710Z,2.92
2022-09-20T00:08:00.856Z,2.92
2022-09-20T00:13:06.865Z,2.91
2022-09-20T00:18:15.241Z,2.91
2022-09-20T00:23:23.380Z,2.91
2022-09-20T00:28:30.912Z,2.92
2022-09-20T00:33:39.465Z,2.92
2022-09-20T00:38:46.664Z,2.92
2022-09-20T00:43:54.549Z,2.91
2022-09-20T00:49:01.753Z,2.91
2022-09-20T00:54:10.577Z,2.92
2022-09-20T00:59:18.327Z,2.92
2022-09-20T01:04:25.803Z,2.91
2022-09-20T01:09:33.154Z,2.92
2022-09-20T01:14:40.931Z,2.92
2022-09-20T01:19:48.102Z,2.91
2022-09-20T01:24:56.365Z,2.92
2022-09-20T01:30:03.149Z,2.91
2022-09-20T01:35:10.912Z,2.91
2022-09-20T01:40:18.272Z,2.92
2022-09-20T01:45:26.235Z,2.92
2022-09-20T01:50:34.085Z,2.91
2022-09-20T01:55:41.701Z,2.91
2022-09-20T02:00:49.930Z,2.91
2022-09-20T02:05:58.002Z,2.91
2022-09-20T02:11:05.742Z,2.92
2022-09-20T02:16:14.710Z,2.92
2022-09-20T02:21:22.144Z,2.91
2022-09-20T02:26:30.460Z,2.92
2022-09-20T02:31:40.223Z,2.92
2022-09-20T02:36:48.654Z,2.92
2022-09-20T02:41:56.917Z,2.92
2022-09-20T02:47:03.950Z,2.92
2022-09-20T02:52:13.499Z,2.91
2022-09-20T02:57:20.827Z,2.92
2022-09-20T03:02:28.103Z,2.92
2022-09-20T03:07:35.442Z,2.92
2022-09-20T03:12:44.152Z,2.92
2022-09-20T03:17:53.017Z,2.92
2022-09-20T03:23:01.172Z,2.91
2022-09-20T03:28:08.584Z,2.92
2022-09-20T03:33:16.488Z,2.92
2022-09-20T03:38:22.979Z,2.91
2022-09-20T03:43:30.832Z,2.92
2022-09-20T03:48:38.193Z,2.91
2022-09-20T03:53:45.860Z,2.91
2022-09-20T03:58:53.780Z,2.91
2022-09-20T04:04:01.658Z,2.92
2022-09-20T04:09:08.939Z,2.91
2022-09-20T04:14:17.253Z,2.91
2022-09-20T04:19:24.477Z,2.91
2022-09-20T04:24:31.851Z,2.91
2022-09-20T04:29:40.700Z,2.92
2022-09-20T04:34:49.745Z,2.91
2022-09-20T04:39:57.568Z,2.93
2022-09-20T04:45:06.276Z,2.91
2022-09-20T04:50:14.869Z,2.93
2022-09-20T04:55:21.861Z,2.92
2022-09-20T05:00:29.053Z,2.93
2022-09-20T05:05:36.261Z,2.92
2022-09-20T05:10:44.494Z,2.92
2022-09-20T05:15:52.501Z,2.93
2022-09-20T05:21:03.126Z,2.92
2022-09-20T05:26:11.348Z,2.92
2022-09-20T05:31:19.190Z,2.92
2022-09-20T05:36:27.175Z,2.92
2022-09-20T05:41:35.888Z,2.92
2022-09-20T05:46:44.355Z,2.92
2022-09-20T05:51:51.887Z,2.92
2022-09-20T05:57:00.993Z,2.92
2022-09-20T06:02:08.588Z,2.92
2022-09-20T06:07:18.537Z,2.94
2022-09-20T06:12:31.673Z,2.93
2022-09-20T06:17:39.975Z,2.93
2022-09-20T06:22:47.301Z,2.94
2022-09-20T06:27:55.345Z,2.92
2022-09-20T06:33:03.231Z,2.93
2022-09-20T06:38:11.691Z,2.94
2022-09-20T06:43:19.844Z,2.93
2022-09-20T06:48:28.217Z,2.93
2022-09-20T06:53:35.659Z,2.94
2022-09-20T06:58:44.052Z,2.94
2022-09-20T07:03:51.957Z,2.94
2022-09-20T07:08:58.829Z,2.94
2022-09-20T07:14:07.559Z,2.93
2022-09-20T07:19:14.839Z,2.94
2022-09-20T07:24:23.114Z,2.95
2022-09-20T07:29:30.557Z,2.94
2022-09-20T07:34:38.665Z,2.93
2022-09-20T07:39:46.684Z,2.94
2022-09-20T07:44:54.795Z,2.94
2022-09-20T07:50:02.001Z,2.95
2022-09-20T07:55:09.117Z,2.95
2022-09-20T08:00:16.984Z,2.96
2022-09-20T08:05:26.146Z,2.97
2022-09-20T08:10:33.266Z,2.97
2022-09-20T08:15:41.641Z,2.97
2022-09-20T08:20:49.149Z,2.97
2022-09-20T08:25:56.107Z,2.96
2022-09-20T08:31:10.036Z,2.96
2022-09-20T08:36:16.904Z,2.95
2022-09-20T08:41:25.246Z,2.95
2022-09-20T08:46:32.570Z,2.95
2022-09-20T08:51:40.909Z,2.96
2022-09-20T08:56:47.670Z,2.95
2022-09-20T09:01:56.815Z,2.96
2022-09-20T09:07:04.595Z,2.97
2022-09-20T09:12:11.429Z,2.98
2022-09-20T09:17:18.597Z,2.96
2022-09-20T09:22:26.188Z,2.98
2022-09-20T09:32:44.552Z,2.96
2022-09-20T09:37:52.421Z,2.96
2022-09-20T09:43:03.103Z,2.98
2022-09-20T09:48:10.614Z,2.98
2022-09-20T09:53:18.777Z,2.97
2022-09-20T09:58:27.015Z,2.97
2022-09-20T10:03:33.976Z,2.97
2022-09-20T10:08:42.375Z,2.96
2022-09-20T10:13:49.076Z,2.97
2022-09-20T10:18:56.248Z,2.97
2022-09-20T10:24:04.045Z,2.97
2022-09-20T10:29:11.297Z,2.95
2022-09-20T10:34:19.141Z,2.96
2022-09-20T10:39:26.418Z,2.95
2022-09-20T10:44:34.218Z,2.95
2022-09-20T10:49:41.415Z,2.96
2022-09-20T10:54:49.865Z,2.96
2022-09-20T10:59:57.062Z,2.96
2022-09-20T11:05:04.209Z,2.97
2022-09-20T11:10:11.807Z,2.96
2022-09-20T11:15:21.110Z,2.96
2022-09-20T11:20:27.180Z,2.98
2022-09-20T11:25:36.142Z,2.96
2022-09-20T11:30:43.449Z,2.98
2022-09-20T11:35:50.623Z,2.97
2022-09-20T11:40:58.330Z,2.96
2022-09-20T11:46:06.320Z,2.95
2022-09-20T11:51:15.321Z,2.96
2022-09-20T11:56:21.879Z,2.95
2022-09-20T12:01:29.328Z,2.96
2022-09-20T12:06:36.426Z,2.95
2022-09-20T12:11:44.391Z,2.95
2022-09-20T12:16:50.817Z,2.95
2022-09-20T12:21:59.162Z,2.95
2022-09-20T12:27:06.000Z,2.95
2022-09-20T12:32:14.253Z,2.95
2022-09-20T12:37:21.537Z,2.96
2022-09-20T12:42:28.736Z,2.95
2022-09-20T12:47:35.903Z,2.96
2022-09-20T12:52:44.246Z,2.96
2022-09-20T12:57:52.011Z,2.95
2022-09-20T13:02:58.863Z,2.94
2022-09-20T13:08:05.385Z,2.95
2022-09-20T13:13:12.759Z,2.95
2022-09-20T13:18:20.464Z,2.95
2022-09-20T13:23:27.667Z,2.95
2022-09-20T13:28:36.487Z,2.95
2022-09-20T13:33:44.450Z,2.95
2022-09-20T13:38:51.781Z,2.95
2022-09-20T13:44:00.152Z,2.95
2022-09-20T13:49:07.456Z,2.94
2022-09-20T13:54:16.049Z,2.94
2022-09-20T13:59:23.186Z,2.94
2022-09-20T14:04:31.028Z,2.95
2022-09-20T14:09:38.233Z,2.95
2022-09-20T14:14:46.517Z,2.95
2022-09-20T14:19:53.215Z,2.95
2022-09-20T14:25:00.417Z,2.95
2022-09-20T14:30:07.615Z,2.96
2022-09-20T14:35:56.446Z,2.96
2022-09-20T14:41:04.903Z,2.95
2022-09-20T14:46:11.459Z,2.95
2022-09-20T14:51:19.944Z,2.95
2022-09-20T14:56:41.853Z,2.96
2022-09-20T15:01:49.919Z,2.95
2022-09-20T15:06:57.548Z,2.95
2022-09-20T15:12:04.882Z,2.95
2022-09-20T15:17:13.055Z,2.95
2022-09-20T15:22:19.822Z,2.95
2022-09-20T15:27:28.823Z,2.96
2022-09-20T15:32:36.353Z,2.95
2022-09-20T15:37:44.238Z,2.95
2022-09-20T15:42:51.374Z,2.95
2022-09-20T15:47:58.332Z,2.95
2022-09-20T15:53:05.464Z,2.95
2022-09-20T15:58:12.677Z,2.95
2022-09-20T16:03:20.655Z,2.94
2022-09-20T16:08:27.784Z,2.94
2022-09-20T16:13:34.974Z,2.94
2022-09-20T16:18:42.551Z,2.94
2022-09-20T16:23:50.602Z,2.92
2022-09-20T16:28:58.932Z,2.93
2022-09-20T16:34:06.854Z,2.92
2022-09-20T16:39:15.285Z,2.93
2022-09-20T16:45:01.765Z,2.92
2022-09-20T16:50:08.951Z,2.92
2022-09-20T16:55:16.153Z,2.94
2022-09-20T17:00:24.913Z,2.91
2022-09-20T17:05:31.836Z,2.92
2022-09-20T17:30:32.818Z,2.92
2022-09-20T17:35:37.918Z,2.92
2022-09-20T17:40:46.345Z,2.92
2022-09-20T17:45:53.544Z,2.92
2022-09-20T17:51:00.833Z,2.91
2022-09-20T17:56:09.150Z,2.92
2022-09-20T18:01:17.065Z,2.92
2022-09-20T18:06:25.592Z,2.91
2022-09-20T18:11:32.799Z,2.92
2022-09-20T18:16:40.575Z,2.91
2022-09-20T18:21:52.207Z,2.91
2022-09-20T18:27:00.887Z,2.91
2022-09-20T18:32:08.521Z,2.92
2022-09-20T18:37:16.661Z,2.91
2022-09-20T18:42:23.617Z,2.91
2022-09-20T18:47:32.630Z,2.92
2022-09-20T18:52:40.225Z,2.9
2022-09-20T18:57:47.141Z,2.91
2022-09-20T19:02:54.825Z,2.9
2022-09-20T19:08:02.128Z,2.91
2022-09-20T19:13:10.655Z,2.91
2022-09-20T19:18:18.437Z,2.92
2022-09-20T19:23:25.694Z,2.91
2022-09-20T19:28:32.894Z,2.91
2022-09-20T19:33:40.249Z,2.91
2022-09-20T19:38:48.156Z,2.92
2022-09-20T19:43:56.264Z,2.91
2022-09-20T19:49:03.620Z,2.92
2022-09-20T19:54:11.644Z,2.91
2022-09-20T19:59:18.027Z,2.91
2022-09-20T20:04:26.931Z,2.91
2022-09-20T20:09:35.367Z,2.91
2022-09-20T20:14:43.216Z,2.92
2022-09-20T20:19:51.314Z,2.91
2022-09-20T20:24:59.104Z,2.91
2022-09-20T20:30:05.704Z,2.91
2022-09-20T20:35:13.671Z,2.92
2022-09-20T20:40:21.380Z,2.93
2022-09-20T20:45:29.622Z,2.91
2022-09-20T20:50:36.467Z,2.91
2022-09-20T20:55:44.307Z,2.91
2022-09-20T21:00:52.023Z,2.91
2022-09-20T21:06:00.192Z,2.91
2022-09-20T21:11:08.290Z,2.91
2022-09-20T21:16:15.602Z,2.92
2022-09-20T21:21:24.633Z,2.91
2022-09-20T21:26:32.996Z,2.91
2022-09-20T21:31:41.265Z,2.92
2022-09-20T21:36:49.341Z,2.92
2022-09-20T21:41:57.486Z,2.91
2022-09-20T21:47:05.734Z,2.91
2022-09-20T21:52:13.908Z,2.91
2022-09-20T21:57:21.746Z,2.92
2022-09-20T22:02:33.269Z,2.91
2022-09-20T22:07:40.469Z,2.91
2022-09-20T22:12:48.098Z,2.92
2022-09-20T22:17:56.027Z,2.91
2022-09-20T22:23:04.131Z,2.91
2022-09-20T22:28:10.493Z,2.91
2022-09-20T22:33:20.023Z,2.91
2022-09-20T22:38:27.454Z,2.91
2022-09-20T22:43:35.286Z,2.91
2022-09-20T22:48:43.185Z,2.91
2022-09-20T22:53:50.415Z,2.91
2022-09-20T22:58:58.426Z,2.92
2022-09-20T23:04:06.132Z,2.91
2022-09-20T23:09:14.680Z,2.91
2022-09-20T23:14:22.886Z,2.91
2022-09-20T23:19:29.549Z,2.91
2022-09-20T23:24:37.421Z,2.91
2022-09-20T23:29:43.945Z,2.91
2022-09-20T23:34:51.736Z,2.91
2022-09-20T23:39:59.662Z,2.91
2022-09-20T23:45:07.658Z,2.91
2022-09-20T23:50:16.449Z,2.91
2022-09-20T23:55:24.926Z,2.91
